Time;durP1;ratioP1;P1;durP2;ratioP2;P2;SDS_P1;SDS_P2;PMS_P1;PMS_P2;Temp;Humidity;BMP_temperature;BMP_pressure;BME280_temperature;BME280_humidity;BME280_pressure;Samples;Min_cycle;Max_cycle;Signal;HPM_P1;HPM_P2
2023/08/16 00:00:12;;;;;;;2.22;0.90;;;25.70;68.60;;;;;;2553195;54;20996;-70
2023/08/16 00:02:38;;;;;;;1.87;0.88;;;25.70;68.50;;;;;;2294650;55;21061;-69
2023/08/16 00:05:05;;;;;;;2.17;0.88;;;25.60;68.40;;;;;;2309542;55;20963;-70
2023/08/16 00:07:34;;;;;;;2.10;0.98;;;25.60;68.50;;;;;;2553695;54;21414;-70
2023/08/16 00:10:00;;;;;;;2.17;0.90;;;25.60;68.60;;;;;;2552443;54;20991;-69
2023/08/16 00:12:30;;;;;;;2.22;0.82;;;25.50;68.70;;;;;;2288002;56;21499;-71
2023/08/16 00:14:57;;;;;;;1.65;0.80;;;25.40;68.60;;;;;;2553282;54;20936;-68
2023/08/16 00:17:23;;;;;;;2.47;1.00;;;25.40;68.70;;;;;;2313191;55;20924;-69
2023/08/16 00:19:50;;;;;;;1.85;1.00;;;25.40;68.90;;;;;;2553052;54;20955;-68
2023/08/16 00:22:16;;;;;;;3.67;0.85;;;25.40;69.10;;;;;;2313900;55;21765;-72
2023/08/16 00:24:43;;;;;;;1.62;0.80;;;25.30;69.00;;;;;;2553268;54;20991;-69
2023/08/16 00:27:09;;;;;;;2.00;0.80;;;25.30;69.00;;;;;;2535488;54;21430;-68
2023/08/16 00:29:36;;;;;;;2.35;0.80;;;25.30;69.10;;;;;;2539273;54;20988;-70
2023/08/16 00:32:04;;;;;;;2.30;0.80;;;25.20;69.10;;;;;;2553516;54;21438;-69
2023/08/16 00:34:30;;;;;;;2.45;0.90;;;25.20;69.10;;;;;;2554160;54;21790;-71
2023/08/16 00:36:57;;;;;;;2.50;0.90;;;25.20;69.10;;;;;;2553344;54;21417;-71
2023/08/16 00:39:23;;;;;;;2.30;0.90;;;25.20;69.10;;;;;;2553010;54;21091;-70
2023/08/16 00:41:54;;;;;;;1.50;0.73;;;25.10;69.10;;;;;;2312734;55;20964;-71
2023/08/16 00:44:21;;;;;;;2.97;1.00;;;25.10;68.90;;;;;;2553914;54;21472;-69
2023/08/16 00:46:47;;;;;;;1.98;0.73;;;25.10;69.20;;;;;;2552947;54;20971;-71
2023/08/16 00:49:19;;;;;;;1.98;0.80;;;25.10;69.20;;;;;;2551996;54;20964;-69
2023/08/16 00:51:46;;;;;;;2.17;0.90;;;25.10;69.30;;;;;;2552756;54;21840;-70
2023/08/16 00:54:12;;;;;;;2.15;0.82;;;25.00;69.30;;;;;;2313075;55;20943;-71
2023/08/16 00:56:38;;;;;;;3.28;0.80;;;25.00;69.30;;;;;;2552499;54;20927;-70
2023/08/16 00:59:06;;;;;;;2.20;1.10;;;25.00;69.40;;;;;;2536678;54;20945;-69
2023/08/16 01:01:32;;;;;;;2.50;0.90;;;25.00;69.50;;;;;;2537563;54;20963;-70
2023/08/16 01:03:58;;;;;;;3.15;0.80;;;24.90;69.50;;;;;;2553187;54;20931;-70
2023/08/16 01:06:25;;;;;;;1.65;0.82;;;24.90;69.50;;;;;;2285510;55;1715597;-70
2023/08/16 01:08:51;;;;;;;2.12;0.98;;;24.90;69.50;;;;;;2313460;55;21431;-72
2023/08/16 01:11:28;;;;;;;1.80;0.90;;;24.90;69.50;;;;;;2553431;54;20975;-69
2023/08/16 01:14:03;;;;;;;1.90;0.70;;;24.90;69.20;;;;;;2313009;55;20975;-69
2023/08/16 01:16:29;;;;;;;2.90;1.10;;;24.90;69.20;;;;;;2313447;55;21004;-70
2023/08/16 01:18:56;;;;;;;2.35;0.80;;;24.80;69.50;;;;;;2552198;54;22058;-72
2023/08/16 01:21:25;;;;;;;1.70;0.73;;;24.80;69.50;;;;;;2553302;54;20956;-72
2023/08/16 01:24:13;;;;;;;2.40;1.00;;;24.80;69.50;;;;;;2553333;54;21874;-69
2023/08/16 01:26:41;;;;;;;1.58;0.70;;;24.80;68.80;;;;;;2552397;54;21426;-72
2023/08/16 01:29:07;;;;;;;1.87;0.77;;;24.80;69.60;;;;;;2313340;55;21007;-69
2023/08/16 01:31:33;;;;;;;2.42;1.00;;;24.80;69.60;;;;;;2553558;54;21015;-70
2023/08/16 01:34:00;;;;;;;1.90;0.90;;;24.70;69.50;;;;;;2553450;54;20981;-69
2023/08/16 01:36:27;;;;;;;2.40;1.10;;;24.70;69.50;;;;;;2313559;55;21194;-70
2023/08/16 01:38:54;;;;;;;2.55;1.17;;;24.70;69.60;;;;;;2313844;55;21040;-72
2023/08/16 01:42:22;;;;;;;2.60;1.00;;;24.60;69.50;;;;;;2525915;54;21088;-70
2023/08/16 01:44:48;;;;;;;2.40;1.00;;;24.60;69.40;;;;;;2313645;55;21003;-69
2023/08/16 01:47:15;;;;;;;2.00;0.90;;;24.60;69.70;;;;;;2313422;55;20975;-71
2023/08/16 01:49:41;;;;;;;4.62;1.10;;;24.60;69.70;;;;;;2303028;55;20997;-70
2023/08/16 01:52:07;;;;;;;2.20;0.90;;;24.60;69.70;;;;;;2538541;54;20947;-70
2023/08/16 01:54:34;;;;;;;2.15;0.98;;;24.50;69.60;;;;;;2553258;54;21402;-70
2023/08/16 01:57:00;;;;;;;3.35;0.90;;;24.50;69.70;;;;;;2547786;54;21567;-69
2023/08/16 01:59:27;;;;;;;2.70;0.98;;;24.50;69.80;;;;;;2503342;55;20996;-72
2023/08/16 02:01:53;;;;;;;1.98;0.90;;;24.40;69.80;;;;;;2286783;56;20997;-72
2023/08/16 02:04:21;;;;;;;2.47;1.10;;;24.40;69.80;;;;;;2307989;55;21012;-70
2023/08/16 02:06:47;;;;;;;2.58;1.23;;;24.40;69.80;;;;;;2531271;54;21409;-70
2023/08/16 02:09:13;;;;;;;2.67;1.23;;;24.40;69.80;;;;;;2288103;55;20931;-69
2023/08/16 02:11:40;;;;;;;2.92;0.95;;;24.30;69.70;;;;;;2313802;55;20968;-70
2023/08/16 02:14:06;;;;;;;2.33;1.12;;;24.30;69.70;;;;;;2552624;54;20938;-72
2023/08/16 02:16:33;;;;;;;3.67;1.08;;;24.30;69.80;;;;;;2313181;55;22325;-71
2023/08/16 02:18:59;;;;;;;1.92;1.05;;;24.30;69.80;;;;;;2294422;55;21084;-71
2023/08/16 02:21:26;;;;;;;3.10;1.35;;;24.30;69.90;;;;;;2309717;55;20927;-71
2023/08/16 02:23:53;;;;;;;3.22;1.20;;;24.20;70.00;;;;;;2312710;55;21046;-68
2023/08/16 02:26:22;;;;;;;2.67;1.30;;;24.20;70.00;;;;;;2552868;54;20991;-70
2023/08/16 02:28:49;;;;;;;4.32;1.65;;;24.20;70.10;;;;;;2553283;54;21739;-70
2023/08/16 02:31:16;;;;;;;3.12;1.48;;;24.20;70.30;;;;;;2544883;54;20957;-70
2023/08/16 02:33:44;;;;;;;2.95;1.45;;;24.20;70.40;;;;;;2283858;56;20952;-70
2023/08/16 02:36:12;;;;;;;2.30;1.20;;;24.10;70.40;;;;;;2497271;55;20998;-71
2023/08/16 02:38:41;;;;;;;3.28;1.30;;;24.10;70.50;;;;;;2282789;55;20946;-69
2023/08/16 02:41:07;;;;;;;4.43;1.83;;;24.10;70.70;;;;;;2515162;55;21352;-70
2023/08/16 02:43:34;;;;;;;2.95;1.58;;;24.10;70.80;;;;;;2282073;55;21058;-70
2023/08/16 02:46:00;;;;;;;2.40;1.40;;;24.10;70.90;;;;;;2282119;56;20970;-71
2023/08/16 02:48:27;;;;;;;2.80;1.58;;;24.10;71.00;;;;;;2281596;56;20954;-71
2023/08/16 02:50:53;;;;;;;3.42;1.60;;;24.10;71.10;;;;;;2281892;56;20954;-69
2023/08/16 02:53:20;;;;;;;2.67;1.55;;;24.10;71.20;;;;;;2515383;55;20962;-70
2023/08/16 02:55:46;;;;;;;3.45;1.62;;;24.10;71.40;;;;;;2515767;55;21407;-70
2023/08/16 02:58:12;;;;;;;3.50;1.80;;;24.20;71.60;;;;;;2282407;56;20950;-68
2023/08/16 03:00:39;;;;;;;3.20;1.58;;;24.20;71.60;;;;;;2525058;54;20902;-70
2023/08/16 03:03:06;;;;;;;3.08;1.73;;;24.20;71.70;;;;;;2292941;55;20955;-69
2023/08/16 03:05:34;;;;;;;2.80;1.45;;;24.20;71.80;;;;;;2535167;54;20940;-69
2023/08/16 03:08:01;;;;;;;3.40;1.40;;;24.20;71.80;;;;;;2552347;54;20939;-70
2023/08/16 03:10:28;;;;;;;2.70;1.30;;;24.20;71.90;;;;;;2553254;54;21847;-70
2023/08/16 03:12:55;;;;;;;3.62;1.80;;;24.30;72.10;;;;;;2313177;55;21512;-72
2023/08/16 03:15:21;;;;;;;3.05;1.55;;;24.30;72.10;;;;;;2553479;54;20971;-71
2023/08/16 03:17:48;;;;;;;3.40;1.80;;;24.30;72.00;;;;;;2313733;55;20939;-68
2023/08/16 03:20:17;;;;;;;2.90;1.30;;;24.40;72.10;;;;;;2313405;55;20920;-71
2023/08/16 03:22:46;;;;;;;2.33;1.25;;;24.40;72.10;;;;;;2524537;54;21897;-71
2023/08/16 03:25:12;;;;;;;2.87;1.55;;;24.40;72.10;;;;;;2311720;55;21058;-68
2023/08/16 03:27:43;;;;;;;3.10;1.70;;;24.40;72.10;;;;;;2313181;55;20959;-71
2023/08/16 03:30:11;;;;;;;2.78;1.35;;;24.40;71.90;;;;;;2553228;54;21015;-70
2023/08/16 03:32:38;;;;;;;2.75;1.10;;;24.50;72.10;;;;;;2553540;54;21018;-68
2023/08/16 03:35:05;;;;;;;2.80;1.58;;;24.50;72.10;;;;;;2534198;54;20953;-69
2023/08/16 03:37:38;;;;;;;3.15;1.10;;;24.60;72.20;;;;;;2304984;55;20947;-71
2023/08/16 03:40:06;;;;;;;3.05;1.50;;;24.60;72.20;;;;;;2313984;55;20952;-70
2023/08/16 03:42:32;;;;;;;3.00;1.30;;;24.60;72.20;;;;;;2313239;55;20952;-70
2023/08/16 03:45:02;;;;;;;4.03;1.52;;;24.70;72.30;;;;;;2313544;55;20974;-70
2023/08/16 03:47:29;;;;;;;3.45;1.85;;;24.70;72.00;;;;;;2552293;54;22211;-71
2023/08/16 03:49:56;;;;;;;2.50;1.20;;;24.70;72.00;;;;;;2553399;54;20944;-72
2023/08/16 03:52:22;;;;;;;4.82;1.33;;;24.80;72.10;;;;;;2553407;54;20946;-72
2023/08/16 03:54:50;;;;;;;2.50;1.30;;;24.80;72.00;;;;;;2314395;55;21003;-73
2023/08/16 03:57:16;;;;;;;2.37;1.30;;;24.80;71.90;;;;;;2553196;54;20932;-72
2023/08/16 03:59:43;;;;;;;4.07;1.60;;;24.90;72.00;;;;;;2313372;55;20936;-72
2023/08/16 04:02:10;;;;;;;3.20;1.35;;;24.90;71.90;;;;;;2553522;54;20951;-71
2023/08/16 04:04:37;;;;;;;3.47;1.33;;;24.90;71.90;;;;;;2526760;54;21472;-74
2023/08/16 04:07:05;;;;;;;2.65;1.20;;;25.00;72.00;;;;;;2308922;55;21003;-74
2023/08/16 04:09:32;;;;;;;2.65;1.40;;;25.00;71.90;;;;;;2552379;54;20939;-70
2023/08/16 04:11:58;;;;;;;3.03;1.58;;;25.00;71.70;;;;;;2313048;55;20943;-71
2023/08/16 04:14:25;;;;;;;2.97;1.50;;;25.00;71.70;;;;;;2552357;54;20944;-71
2023/08/16 04:16:52;;;;;;;2.67;1.40;;;25.10;72.40;;;;;;2313466;55;20915;-74
2023/08/16 04:19:18;;;;;;;2.65;1.20;;;25.10;71.70;;;;;;2313289;55;20917;-70
2023/08/16 04:21:44;;;;;;;3.45;1.17;;;25.10;71.70;;;;;;2552954;54;21007;-72
2023/08/16 04:24:13;;;;;;;2.30;1.20;;;25.10;71.60;;;;;;2313728;55;20970;-71
2023/08/16 04:26:40;;;;;;;2.90;1.40;;;25.20;71.70;;;;;;2553403;54;20964;-69
2023/08/16 04:29:07;;;;;;;3.00;1.87;;;25.20;71.60;;;;;;2313677;55;21002;-71
2023/08/16 04:31:33;;;;;;;3.35;1.50;;;25.20;71.60;;;;;;2313255;55;21736;-71
2023/08/16 04:33:59;;;;;;;2.90;1.50;;;25.20;71.50;;;;;;2521065;54;21390;-70
2023/08/16 04:36:25;;;;;;;3.50;1.40;;;25.20;71.40;;;;;;2313425;55;20944;-70
2023/08/16 04:38:52;;;;;;;3.22;1.37;;;25.20;71.40;;;;;;2313744;55;21242;-72
2023/08/16 04:41:18;;;;;;;2.55;1.37;;;25.20;71.40;;;;;;2553590;54;21071;-69
2023/08/16 04:43:48;;;;;;;2.85;1.50;;;25.20;71.40;;;;;;2553263;54;21019;-74
2023/08/16 04:46:17;;;;;;;2.83;1.60;;;25.20;71.20;;;;;;2553353;54;20936;-71
2023/08/16 04:48:43;;;;;;;2.87;1.50;;;25.20;71.10;;;;;;2553389;54;20963;-70
2023/08/16 04:51:10;;;;;;;2.70;1.45;;;25.20;71.30;;;;;;2295076;55;20996;-71
2023/08/16 04:53:36;;;;;;;2.47;1.40;;;25.20;71.20;;;;;;2309581;55;20959;-70
2023/08/16 04:56:03;;;;;;;2.80;1.70;;;25.20;71.20;;;;;;2313198;55;20992;-71
2023/08/16 04:58:29;;;;;;;3.08;1.35;;;25.20;71.20;;;;;;2312641;55;21848;-71
2023/08/16 05:00:55;;;;;;;3.00;1.45;;;25.20;71.30;;;;;;2553971;54;20959;-73
2023/08/16 05:03:22;;;;;;;2.47;1.30;;;25.20;71.50;;;;;;2552871;54;21023;-71
2023/08/16 05:05:54;;;;;;;2.55;1.48;;;25.10;71.20;;;;;;2540049;54;21017;-71
2023/08/16 05:08:20;;;;;;;2.37;1.37;;;25.10;71.30;;;;;;2535618;54;20919;-72
2023/08/16 05:10:47;;;;;;;4.07;1.30;;;25.10;71.30;;;;;;2553045;54;20967;-71
2023/08/16 05:13:13;;;;;;;2.92;1.35;;;25.10;71.30;;;;;;2553550;54;20916;-71
2023/08/16 05:15:40;;;;;;;2.50;1.30;;;25.10;71.40;;;;;;2552462;54;20963;-71
2023/08/16 05:18:06;;;;;;;2.35;1.23;;;25.10;71.40;;;;;;2553527;54;21007;-70
2023/08/16 05:20:35;;;;;;;2.60;1.40;;;25.10;71.30;;;;;;2552482;54;20983;-70
2023/08/16 05:23:01;;;;;;;2.80;1.65;;;25.10;71.20;;;;;;2315737;55;20935;-69
2023/08/16 05:25:28;;;;;;;3.00;1.42;;;25.10;71.20;;;;;;2313498;55;21035;-71
2023/08/16 05:27:58;;;;;;;3.03;1.70;;;25.00;71.10;;;;;;2314038;55;20971;-71
2023/08/16 05:30:25;;;;;;;2.37;1.30;;;25.00;71.10;;;;;;2553047;54;21469;-67
2023/08/16 05:32:54;;;;;;;2.58;1.45;;;25.00;71.10;;;;;;2553339;54;21047;-69
2023/08/16 05:35:21;;;;;;;3.62;1.42;;;25.00;71.10;;;;;;2553126;54;22482;-70
2023/08/16 05:37:48;;;;;;;3.78;1.50;;;25.00;71.30;;;;;;2534439;54;21310;-72
2023/08/16 05:40:14;;;;;;;2.87;1.60;;;25.00;71.40;;;;;;2541722;54;21062;-72
2023/08/16 05:42:43;;;;;;;2.50;1.33;;;25.00;71.50;;;;;;2553070;54;21064;-70
2023/08/16 05:45:10;;;;;;;3.20;1.40;;;25.00;71.60;;;;;;2313800;55;20939;-72
2023/08/16 05:47:37;;;;;;;3.35;1.55;;;24.90;71.60;;;;;;2310186;55;20992;-69
2023/08/16 05:50:05;;;;;;;2.75;1.37;;;24.90;71.60;;;;;;2531340;54;20979;-70
2023/08/16 05:52:33;;;;;;;2.37;1.10;;;24.90;71.80;;;;;;2313726;55;20991;-68
2023/08/16 05:54:59;;;;;;;2.83;1.50;;;24.90;71.90;;;;;;2306106;55;20982;-69
2023/08/16 05:57:26;;;;;;;3.03;1.55;;;24.90;72.00;;;;;;2536202;54;20924;-69
2023/08/16 05:59:52;;;;;;;2.58;1.37;;;25.00;72.20;;;;;;2553982;54;20980;-69
2023/08/16 06:02:23;;;;;;;3.65;1.60;;;25.00;72.20;;;;;;2534303;54;21021;-67
2023/08/16 06:04:50;;;;;;;2.60;1.50;;;25.00;72.20;;;;;;2531013;54;21092;-69
2023/08/16 06:07:16;;;;;;;3.00;1.67;;;25.00;72.10;;;;;;2532630;54;20994;-69
2023/08/16 06:09:42;;;;;;;3.50;1.85;;;25.00;72.00;;;;;;2552559;54;22287;-69
2023/08/16 06:12:10;;;;;;;3.28;1.80;;;25.00;72.00;;;;;;2552945;54;20968;-70
2023/08/16 06:14:36;;;;;;;3.20;1.73;;;25.00;72.00;;;;;;2553519;54;20979;-69
2023/08/16 06:17:06;;;;;;;2.97;1.70;;;25.10;72.10;;;;;;2291722;55;20957;-70
2023/08/16 06:19:35;;;;;;;3.67;1.80;;;25.10;72.20;;;;;;2313602;55;21043;-70
2023/08/16 06:22:02;;;;;;;2.85;1.73;;;25.10;72.30;;;;;;2554015;54;20923;-70
2023/08/16 06:24:33;;;;;;;3.17;1.73;;;25.10;72.30;;;;;;2520203;54;21720;-70
2023/08/16 06:27:00;;;;;;;3.85;1.77;;;25.10;72.20;;;;;;2552359;54;20936;-70
2023/08/16 06:29:30;;;;;;;3.00;1.80;;;25.10;72.40;;;;;;2553165;54;20978;-71
2023/08/16 06:31:59;;;;;;;2.83;1.70;;;25.10;72.40;;;;;;2553002;54;20956;-69
2023/08/16 06:34:27;;;;;;;3.05;1.80;;;25.20;72.50;;;;;;2553443;54;20935;-70
2023/08/16 06:36:54;;;;;;;3.05;1.50;;;25.20;72.50;;;;;;2312892;55;20924;-69
2023/08/16 06:39:23;;;;;;;3.70;2.17;;;25.20;72.50;;;;;;2554067;54;20943;-67
2023/08/16 06:41:50;;;;;;;4.43;2.05;;;25.20;72.40;;;;;;2553275;54;21038;-70
2023/08/16 06:44:18;;;;;;;3.15;1.80;;;25.30;72.50;;;;;;2526443;54;21421;-70
2023/08/16 06:46:44;;;;;;;3.22;1.70;;;25.30;72.50;;;;;;2522492;54;20917;-68
2023/08/16 06:49:10;;;;;;;2.97;1.80;;;25.30;72.40;;;;;;2547167;54;20955;-70
2023/08/16 06:51:37;;;;;;;3.05;1.67;;;25.30;72.30;;;;;;2313278;55;20964;-72
2023/08/16 06:54:04;;;;;;;3.92;1.83;;;25.30;72.40;;;;;;2554441;54;20987;-69
2023/08/16 06:56:32;;;;;;;3.15;1.65;;;25.30;72.40;;;;;;2554012;54;20940;-70
2023/08/16 06:59:01;;;;;;;4.15;1.60;;;25.40;72.50;;;;;;2552318;54;21385;-68
2023/08/16 07:01:28;;;;;;;3.50;1.55;;;25.40;72.60;;;;;;2552583;54;20979;-69
2023/08/16 07:03:57;;;;;;;4.20;2.10;;;25.40;72.60;;;;;;2553782;54;21825;-70
2023/08/16 07:06:26;;;;;;;3.03;1.50;;;25.50;72.60;;;;;;2313994;55;20943;-70
2023/08/16 07:08:53;;;;;;;4.40;1.90;;;25.50;72.70;;;;;;2553738;54;20987;-71
2023/08/16 07:11:19;;;;;;;2.70;1.62;;;25.50;72.70;;;;;;2553962;54;20935;-68
2023/08/16 07:13:47;;;;;;;3.12;2.05;;;25.50;72.70;;;;;;2313823;55;21007;-68
2023/08/16 07:16:13;;;;;;;5.50;2.20;;;25.60;72.80;;;;;;2313871;55;21007;-70
2023/08/16 07:18:40;;;;;;;3.83;2.08;;;25.60;72.80;;;;;;2313384;55;20984;-67
2023/08/16 07:21:08;;;;;;;3.80;1.77;;;25.60;72.70;;;;;;2288596;56;21015;-68
2023/08/16 07:23:34;;;;;;;3.45;1.98;;;25.60;72.80;;;;;;2553955;54;21023;-70
2023/08/16 07:26:01;;;;;;;2.80;1.75;;;25.70;72.80;;;;;;2554228;54;20920;-68
2023/08/16 07:28:28;;;;;;;3.30;1.70;;;25.70;72.80;;;;;;2554221;54;20951;-69
2023/08/16 07:31:01;;;;;;;3.80;2.28;;;25.70;72.90;;;;;;2553883;54;20935;-71
2023/08/16 07:33:30;;;;;;;4.03;1.87;;;25.80;72.70;;;;;;2521319;54;20988;-68
2023/08/16 07:36:01;;;;;;;4.28;1.92;;;25.80;72.90;;;;;;2549402;54;21334;-69
2023/08/16 07:38:28;;;;;;;3.25;1.90;;;25.90;72.80;;;;;;2526059;54;21757;-69
2023/08/16 07:40:55;;;;;;;2.75;1.62;;;25.90;72.90;;;;;;2553062;54;20951;-70
2023/08/16 07:43:21;;;;;;;4.53;1.90;;;26.00;72.80;;;;;;2553951;54;20959;-71
2023/08/16 07:45:52;;;;;;;2.50;1.48;;;26.00;72.80;;;;;;2552550;54;20939;-69
2023/08/16 07:48:19;;;;;;;4.12;1.70;;;26.00;72.50;;;;;;2314428;55;20987;-68
2023/08/16 07:50:46;;;;;;;2.50;1.48;;;26.00;72.70;;;;;;2553033;54;21404;-70
2023/08/16 07:53:13;;;;;;;3.10;1.52;;;26.10;72.80;;;;;;2313905;55;20935;-72
2023/08/16 07:55:40;;;;;;;3.00;1.80;;;26.20;73.00;;;;;;2554023;54;20973;-70
2023/08/16 07:58:06;;;;;;;2.40;1.40;;;26.20;73.00;;;;;;2554228;54;21638;-68
2023/08/16 08:00:33;;;;;;;4.15;1.70;;;26.20;72.90;;;;;;2553380;54;20915;-71
2023/08/16 08:03:00;;;;;;;3.10;1.80;;;26.30;72.90;;;;;;2553748;54;20955;-70
2023/08/16 08:05:28;;;;;;;4.05;1.90;;;26.30;72.90;;;;;;2313893;55;20944;-70
2023/08/16 08:07:55;;;;;;;2.92;1.75;;;26.40;72.90;;;;;;2553947;54;20952;-69
2023/08/16 08:10:22;;;;;;;2.75;1.50;;;26.40;72.90;;;;;;2313867;55;20951;-71
2023/08/16 08:12:48;;;;;;;3.17;1.90;;;26.40;72.90;;;;;;2312732;55;20947;-71
2023/08/16 08:15:15;;;;;;;3.33;1.95;;;26.50;73.10;;;;;;2521757;54;21070;-71
2023/08/16 08:17:41;;;;;;;3.67;1.98;;;26.60;73.00;;;;;;2529697;54;21922;-71
2023/08/16 08:20:08;;;;;;;4.20;2.00;;;26.60;72.90;;;;;;2314103;55;21032;-69
2023/08/16 08:22:34;;;;;;;3.42;2.03;;;26.70;73.00;;;;;;2522215;54;20925;-71
2023/08/16 08:25:01;;;;;;;5.18;2.03;;;26.70;72.90;;;;;;2549602;54;21456;-68
2023/08/16 08:27:28;;;;;;;3.10;2.00;;;26.80;72.90;;;;;;2524855;54;21011;-68
2023/08/16 08:29:55;;;;;;;3.17;1.75;;;26.90;72.80;;;;;;2553559;54;20991;-69
2023/08/16 08:32:21;;;;;;;3.33;1.80;;;26.90;72.80;;;;;;2552439;54;20943;-71
2023/08/16 08:34:50;;;;;;;2.75;1.60;;;27.00;72.70;;;;;;2552831;54;20980;-71
2023/08/16 08:37:16;;;;;;;3.05;1.70;;;27.00;72.70;;;;;;2291231;56;20933;-70
2023/08/16 08:39:42;;;;;;;2.90;1.90;;;27.00;72.80;;;;;;2313418;55;20996;-70
2023/08/16 08:42:09;;;;;;;3.95;1.80;;;27.10;72.90;;;;;;2515708;55;20966;-70
2023/08/16 08:44:43;;;;;;;3.15;1.87;;;27.20;72.80;;;;;;2282685;55;20971;-69
2023/08/16 08:47:09;;;;;;;3.37;1.65;;;27.20;72.50;;;;;;2288247;55;20971;-71
2023/08/16 08:49:41;;;;;;;3.42;1.65;;;27.30;72.70;;;;;;2312765;55;20954;-70
2023/08/16 08:52:07;;;;;;;2.92;1.70;;;27.30;72.70;;;;;;2313767;55;21000;-69
2023/08/16 08:54:35;;;;;;;4.25;1.90;;;27.40;72.60;;;;;;2313062;55;20928;-70
2023/08/16 08:57:05;;;;;;;3.22;1.70;;;27.40;72.50;;;;;;2553355;54;20951;-71
2023/08/16 08:59:33;;;;;;;3.45;1.60;;;27.50;72.40;;;;;;2552887;54;21878;-69
2023/08/16 09:02:00;;;;;;;3.40;2.10;;;27.50;72.20;;;;;;2289943;56;20989;-71
2023/08/16 09:04:26;;;;;;;2.90;1.80;;;27.60;72.30;;;;;;2553613;54;20948;-70
2023/08/16 09:06:53;;;;;;;2.80;1.65;;;27.70;72.40;;;;;;2313115;55;20959;-69
2023/08/16 09:09:20;;;;;;;3.00;1.80;;;27.70;72.40;;;;;;2313527;55;20959;-70
2023/08/16 09:11:46;;;;;;;5.70;2.15;;;27.70;72.30;;;;;;2312998;55;21039;-70
2023/08/16 09:14:13;;;;;;;3.10;1.87;;;27.80;72.30;;;;;;2313578;55;21003;-72
2023/08/16 09:16:39;;;;;;;3.60;2.28;;;27.90;72.20;;;;;;2553136;54;20936;-71
2023/08/16 09:19:13;;;;;;;3.40;2.00;;;27.90;72.10;;;;;;2306068;55;21029;-72
2023/08/16 09:21:41;;;;;;;3.22;1.58;;;27.90;71.70;;;;;;2536373;54;20982;-71
2023/08/16 09:24:07;;;;;;;2.50;1.60;;;28.00;72.20;;;;;;2553131;54;20920;-71
2023/08/16 09:26:36;;;;;;;3.10;1.90;;;28.00;72.10;;;;;;2549048;54;20991;-71
2023/08/16 09:29:06;;;;;;;3.75;1.95;;;28.10;71.90;;;;;;2526001;54;20990;-71
2023/08/16 09:31:39;;;;;;;2.95;1.80;;;28.20;71.90;;;;;;2553197;54;20956;-70
2023/08/16 09:34:06;;;;;;;3.62;1.92;;;28.20;71.10;;;;;;2552417;54;21059;-70
2023/08/16 09:36:36;;;;;;;3.65;1.62;;;28.20;71.70;;;;;;2553201;54;20955;-70
2023/08/16 09:39:11;;;;;;;3.55;1.80;;;28.30;71.70;;;;;;2552649;54;21012;-72
2023/08/16 09:41:49;;;;;;;3.45;1.80;;;28.30;71.40;;;;;;2294449;55;22389;-71
2023/08/16 09:44:16;;;;;;;3.22;1.98;;;28.40;70.90;;;;;;2531985;54;21003;-72
2023/08/16 09:46:44;;;;;;;4.35;2.05;;;28.40;71.70;;;;;;2312863;55;21011;-73
2023/08/16 09:49:14;;;;;;;3.58;1.95;;;28.50;71.70;;;;;;2523194;54;21001;-71
2023/08/16 09:51:41;;;;;;;2.90;1.80;;;28.50;71.50;;;;;;2311942;55;21465;-71
2023/08/16 09:54:12;;;;;;;3.20;2.00;;;28.50;71.30;;;;;;2553229;54;20967;-72
2023/08/16 09:56:39;;;;;;;4.50;2.28;;;28.60;71.30;;;;;;2553607;54;20944;-71
2023/08/16 09:59:07;;;;;;;3.55;2.10;;;28.60;71.20;;;;;;2553189;54;21031;-68
2023/08/16 10:02:02;;;;;;;3.22;1.98;;;28.70;71.10;;;;;;2552661;54;20983;-71
2023/08/16 10:04:33;;;;;;;4.90;2.42;;;28.70;71.10;;;;;;2553024;54;21523;-72
2023/08/16 10:07:04;;;;;;;4.27;2.43;;;28.80;71.00;;;;;;2553768;54;21051;-71
2023/08/16 10:09:33;;;;;;;3.45;2.28;;;28.80;71.10;;;;;;2553285;54;21758;-69
2023/08/16 10:12:02;;;;;;;4.80;2.70;;;28.80;70.90;;;;;;2552669;54;20963;-71
2023/08/16 10:14:29;;;;;;;3.58;2.22;;;28.90;70.50;;;;;;2290214;56;20941;-72
2023/08/16 10:17:02;;;;;;;4.15;2.30;;;28.90;70.70;;;;;;2553126;54;20980;-74
2023/08/16 10:19:30;;;;;;;3.08;2.25;;;28.90;70.10;;;;;;2553378;54;20968;-71
2023/08/16 10:21:58;;;;;;;3.25;1.85;;;29.00;70.60;;;;;;2313104;55;21928;-73
2023/08/16 10:24:25;;;;;;;3.55;2.15;;;29.00;70.70;;;;;;2554231;54;21032;-71
2023/08/16 10:26:54;;;;;;;3.08;1.83;;;29.00;70.50;;;;;;2553396;54;20943;-73
2023/08/16 10:29:28;;;;;;;3.62;2.12;;;29.10;70.50;;;;;;2553089;54;20940;-74
2023/08/16 10:31:54;;;;;;;3.42;2.05;;;29.10;70.50;;;;;;2312880;55;20975;-74
2023/08/16 10:34:21;;;;;;;5.15;2.30;;;29.20;70.60;;;;;;2313886;55;21319;-71
2023/08/16 10:36:47;;;;;;;3.87;2.37;;;29.20;70.50;;;;;;2290688;56;21013;-71
2023/08/16 10:39:23;;;;;;;3.40;2.35;;;29.30;70.60;;;;;;2521946;54;20987;-72
2023/08/16 10:42:02;;;;;;;4.35;2.53;;;29.30;70.00;;;;;;2553182;54;20992;-72
2023/08/16 10:44:30;;;;;;;3.70;2.53;;;29.30;69.70;;;;;;2314374;55;20954;-71
2023/08/16 10:46:56;;;;;;;4.00;2.80;;;29.40;70.40;;;;;;2295238;55;21455;-74
2023/08/16 10:49:23;;;;;;;5.97;2.62;;;29.50;70.50;;;;;;2546531;54;21047;-72
2023/08/16 10:51:51;;;;;;;3.58;2.42;;;29.50;70.50;;;;;;2553479;54;21740;-69
2023/08/16 10:54:31;;;;;;;5.05;2.97;;;29.60;70.50;;;;;;2554025;54;20959;-71
2023/08/16 10:57:04;;;;;;;4.60;2.30;;;29.60;69.80;;;;;;2312365;55;20955;-71
2023/08/16 10:59:37;;;;;;;3.72;2.55;;;29.60;70.10;;;;;;2553488;54;21722;-71
2023/08/16 11:02:14;;;;;;;3.70;2.40;;;29.70;69.60;;;;;;2312856;55;20943;-72
2023/08/16 11:04:42;;;;;;;3.62;2.50;;;29.70;69.70;;;;;;2313085;55;21372;-71
2023/08/16 11:07:09;;;;;;;3.70;2.40;;;29.80;70.20;;;;;;2553688;54;21471;-71
2023/08/16 11:09:39;;;;;;;4.53;2.50;;;29.80;70.00;;;;;;2554265;54;20951;-72
2023/08/16 11:12:08;;;;;;;4.05;2.67;;;29.90;69.90;;;;;;2552510;54;20963;-71
2023/08/16 11:14:35;;;;;;;4.20;2.40;;;29.90;69.90;;;;;;2313786;55;20971;-72
2023/08/16 11:17:02;;;;;;;4.75;2.62;;;30.00;69.80;;;;;;2552631;54;21856;-67
2023/08/16 11:19:28;;;;;;;5.78;2.62;;;30.00;69.80;;;;;;2553594;54;20984;-74
2023/08/16 11:22:02;;;;;;;4.20;2.42;;;30.10;69.80;;;;;;2540870;54;20945;-73
2023/08/16 11:24:30;;;;;;;3.92;2.58;;;30.10;69.30;;;;;;2505252;54;20959;-72
2023/08/16 11:26:58;;;;;;;3.83;2.60;;;30.20;69.40;;;;;;2302814;55;20987;-73
2023/08/16 11:29:25;;;;;;;3.40;2.42;;;30.30;69.40;;;;;;2313771;55;21439;-72
2023/08/16 11:31:58;;;;;;;3.45;2.40;;;30.30;69.40;;;;;;2553264;54;21011;-71
2023/08/16 11:34:24;;;;;;;3.28;2.40;;;30.30;68.90;;;;;;2313493;55;21503;-70
2023/08/16 11:36:50;;;;;;;3.22;2.30;;;30.30;69.10;;;;;;2313311;55;20912;-71
2023/08/16 11:39:17;;;;;;;4.35;2.67;;;30.40;69.10;;;;;;2313216;55;20924;-69
2023/08/16 11:41:44;;;;;;;3.72;2.50;;;30.50;69.10;;;;;;2312487;55;20999;-69
2023/08/16 11:44:11;;;;;;;4.07;2.35;;;30.50;69.00;;;;;;2313785;55;21035;-70
2023/08/16 11:46:44;;;;;;;3.45;2.30;;;30.60;68.90;;;;;;2553695;54;20963;-71
2023/08/16 11:49:12;;;;;;;3.80;2.50;;;30.60;68.30;;;;;;2313522;55;20991;-72
2023/08/16 11:51:39;;;;;;;3.72;2.70;;;30.60;69.00;;;;;;2300166;55;21763;-75
2023/08/16 11:54:08;;;;;;;3.08;2.08;;;30.70;69.10;;;;;;2542501;54;21729;-70
2023/08/16 11:56:34;;;;;;;3.47;2.12;;;30.80;69.10;;;;;;2313649;55;21105;-70
2023/08/16 11:59:02;;;;;;;3.42;2.20;;;30.80;68.90;;;;;;2313309;55;20924;-70
2023/08/16 12:01:29;;;;;;;3.47;2.33;;;30.80;68.80;;;;;;2313806;55;21040;-72
2023/08/16 12:03:58;;;;;;;4.53;2.50;;;30.90;68.80;;;;;;2313528;55;21011;-72
2023/08/16 12:06:27;;;;;;;4.03;2.25;;;30.90;68.50;;;;;;2313257;55;20986;-70
2023/08/16 12:08:54;;;;;;;3.42;2.37;;;31.00;68.60;;;;;;2552840;54;20967;-71
2023/08/16 12:11:33;;;;;;;3.65;2.20;;;31.10;68.40;;;;;;2312739;55;21026;-68
2023/08/16 12:14:01;;;;;;;4.37;2.50;;;31.10;67.30;;;;;;2552146;54;21043;-71
2023/08/16 12:16:31;;;;;;;3.78;2.40;;;31.10;68.00;;;;;;2302290;55;21043;-71
2023/08/16 12:18:58;;;;;;;3.17;2.25;;;31.20;68.40;;;;;;2301745;55;21020;-70
2023/08/16 12:21:25;;;;;;;4.43;2.22;;;31.20;68.20;;;;;;2552486;54;21385;-71
2023/08/16 12:23:51;;;;;;;3.33;2.22;;;31.30;68.20;;;;;;2313791;55;21031;-74
2023/08/16 12:26:19;;;;;;;3.62;2.05;;;31.30;68.00;;;;;;2522636;54;21037;-69
2023/08/16 12:28:45;;;;;;;3.70;2.10;;;31.40;68.00;;;;;;2546059;54;21596;-71
2023/08/16 12:31:13;;;;;;;2.87;2.00;;;31.40;67.80;;;;;;2514338;54;20994;-71
2023/08/16 12:33:43;;;;;;;3.20;2.17;;;31.40;67.80;;;;;;2302029;55;21483;-72
2023/08/16 12:36:09;;;;;;;3.15;2.12;;;31.50;68.00;;;;;;2552728;54;21921;-72
2023/08/16 12:38:35;;;;;;;4.65;2.15;;;31.50;68.00;;;;;;2553301;54;20955;-71
2023/08/16 12:41:07;;;;;;;3.17;1.87;;;31.50;68.00;;;;;;2552792;54;20955;-71
2023/08/16 12:43:33;;;;;;;4.10;2.10;;;31.60;67.90;;;;;;2314144;55;20983;-69
2023/08/16 12:46:05;;;;;;;3.22;2.30;;;31.60;67.80;;;;;;2553815;54;21079;-70
2023/08/16 12:48:32;;;;;;;2.83;1.92;;;31.70;67.60;;;;;;2313281;55;20936;-71
2023/08/16 12:51:00;;;;;;;2.97;1.65;;;31.70;67.40;;;;;;2553260;54;21055;-71